sensor_id;sensor_type;location;lat;lon;timestamp;temperature;humidity
77100;SHT31;66602;48.922;2.414;2024-03-23T00:53:07;7.27;93.18
77100;SHT31;66602;48.922;2.414;2024-03-23T00:55:33;7.33;93.33
77100;SHT31;66602;48.922;2.414;2024-03-23T00:57:58;7.30;93.41
77100;SHT31;66602;48.922;2.414;2024-03-23T01:00:24;7.28;93.45
77100;SHT31;66602;48.922;2.414;2024-03-23T01:02:49;7.30;93.80
77100;SHT31;66602;48.922;2.414;2024-03-23T01:05:15;7.36;94.05
77100;SHT31;66602;48.922;2.414;2024-03-23T01:07:40;7.53;93.44
77100;SHT31;66602;48.922;2.414;2024-03-23T01:10:06;7.55;93.42
77100;SHT31;66602;48.922;2.414;2024-03-23T01:12:31;7.61;93.42
77100;SHT31;66602;48.922;2.414;2024-03-23T01:14:57;7.65;92.86
77100;SHT31;66602;48.922;2.414;2024-03-23T01:17:22;7.67;92.64
77100;SHT31;66602;48.922;2.414;2024-03-23T01:19:48;7.74;92.73
77100;SHT31;66602;48.922;2.414;2024-03-23T01:22:13;7.82;92.39
77100;SHT31;66602;48.922;2.414;2024-03-23T01:24:39;7.84;92.44
77100;SHT31;66602;48.922;2.414;2024-03-23T01:27:04;7.88;92.17
77100;SHT31;66602;48.922;2.414;2024-03-23T01:29:30;7.95;91.34
77100;SHT31;66602;48.922;2.414;2024-03-23T01:31:55;7.95;91.40
77100;SHT31;66602;48.922;2.414;2024-03-23T01:34:21;8.02;91.08
77100;SHT31;66602;48.922;2.414;2024-03-23T01:36:47;8.03;90.84
77100;SHT31;66602;48.922;2.414;2024-03-23T01:39:13;8.21;90.14
77100;SHT31;66602;48.922;2.414;2024-03-23T01:41:39;8.21;90.41
77100;SHT31;66602;48.922;2.414;2024-03-23T01:44:07;8.22;90.75
77100;SHT31;66602;48.922;2.414;2024-03-23T01:46:37;8.16;90.93
77100;SHT31;66602;48.922;2.414;2024-03-23T01:49:03;8.15;91.00
77100;SHT31;66602;48.922;2.414;2024-03-23T01:51:30;8.19;90.90
77100;SHT31;66602;48.922;2.414;2024-03-23T01:53:56;8.22;90.53
77100;SHT31;66602;48.922;2.414;2024-03-23T01:56:22;8.25;90.39
77100;SHT31;66602;48.922;2.414;2024-03-23T01:58:47;8.32;89.38
77100;SHT31;66602;48.922;2.414;2024-03-23T02:01:13;8.30;90.00
77100;SHT31;66602;48.922;2.414;2024-03-23T02:03:38;8.29;90.12
77100;SHT31;66602;48.922;2.414;2024-03-23T02:06:04;8.28;89.17
77100;SHT31;66602;48.922;2.414;2024-03-23T02:08:32;8.22;89.23
77100;SHT31;66602;48.922;2.414;2024-03-23T02:10:58;8.28;88.94
77100;SHT31;66602;48.922;2.414;2024-03-23T02:13:24;8.21;89.14
77100;SHT31;66602;48.922;2.414;2024-03-23T02:15:49;8.17;89.04
77100;SHT31;66602;48.922;2.414;2024-03-23T02:18:15;8.13;89.21
77100;SHT31;66602;48.922;2.414;2024-03-23T02:20:40;8.19;88.95
77100;SHT31;66602;48.922;2.414;2024-03-23T02:23:13;8.28;88.95
77100;SHT31;66602;48.922;2.414;2024-03-23T02:25:38;8.30;89.05
77100;SHT31;66602;48.922;2.414;2024-03-23T02:28:04;8.43;87.65
77100;SHT31;66602;48.922;2.414;2024-03-23T02:30:29;8.47;87.33
77100;SHT31;66602;48.922;2.414;2024-03-23T02:32:55;8.49;87.44
77100;SHT31;66602;48.922;2.414;2024-03-23T02:35:21;8.40;87.90
77100;SHT31;66602;48.922;2.414;2024-03-23T02:37:47;8.36;87.82
77100;SHT31;66602;48.922;2.414;2024-03-23T02:40:14;8.30;86.44
77100;SHT31;66602;48.922;2.414;2024-03-23T02:42:40;8.21;86.74
77100;SHT31;66602;48.922;2.414;2024-03-23T02:45:06;8.12;86.74
77100;SHT31;66602;48.922;2.414;2024-03-23T02:47:32;8.05;87.17
77100;SHT31;66602;48.922;2.414;2024-03-23T02:49:58;8.01;87.54
77100;SHT31;66602;48.922;2.414;2024-03-23T02:52:23;7.96;87.77
77100;SHT31;66602;48.922;2.414;2024-03-23T02:54:49;8.02;86.38
77100;SHT31;66602;48.922;2.414;2024-03-23T02:57:14;7.94;86.72
77100;SHT31;66602;48.922;2.414;2024-03-23T02:59:40;7.85;86.29
77100;SHT31;66602;48.922;2.414;2024-03-23T03:02:06;7.84;86.04
77100;SHT31;66602;48.922;2.414;2024-03-23T03:04:32;7.79;86.31
77100;SHT31;66602;48.922;2.414;2024-03-23T03:06:58;7.65;87.09
77100;SHT31;66602;48.922;2.414;2024-03-23T03:09:23;7.47;87.22
77100;SHT31;66602;48.922;2.414;2024-03-23T03:11:49;7.46;87.10
77100;SHT31;66602;48.922;2.414;2024-03-23T03:14:14;7.36;87.70
77100;SHT31;66602;48.922;2.414;2024-03-23T03:16:40;7.26;88.34
77100;SHT31;66602;48.922;2.414;2024-03-23T03:19:05;7.24;87.57
77100;SHT31;66602;48.922;2.414;2024-03-23T03:21:31;7.19;87.63
77100;SHT31;66602;48.922;2.414;2024-03-23T03:23:57;7.12;87.16
77100;SHT31;66602;48.922;2.414;2024-03-23T03:26:23;6.97;87.87
77100;SHT31;66602;48.922;2.414;2024-03-23T03:28:50;7.05;86.24
77100;SHT31;66602;48.922;2.414;2024-03-23T03:31:16;6.96;87.12
77100;SHT31;66602;48.922;2.414;2024-03-23T03:33:42;6.96;86.92
77100;SHT31;66602;48.922;2.414;2024-03-23T03:36:07;6.91;87.04
77100;SHT31;66602;48.922;2.414;2024-03-23T03:38:33;6.82;87.77
77100;SHT31;66602;48.922;2.414;2024-03-23T03:41:01;6.81;87.61
77100;SHT31;66602;48.922;2.414;2024-03-23T03:43:26;6.71;87.64
77100;SHT31;66602;48.922;2.414;2024-03-23T03:45:53;6.69;87.50
77100;SHT31;66602;48.922;2.414;2024-03-23T03:48:19;6.72;87.53
77100;SHT31;66602;48.922;2.414;2024-03-23T03:50:44;6.68;87.08
77100;SHT31;66602;48.922;2.414;2024-03-23T03:53:10;6.63;87.22
77100;SHT31;66602;48.922;2.414;2024-03-23T03:55:35;6.54;87.72
77100;SHT31;66602;48.922;2.414;2024-03-23T03:58:01;6.54;87.18
77100;SHT31;66602;48.922;2.414;2024-03-23T04:00:26;6.51;87.63
77100;SHT31;66602;48.922;2.414;2024-03-23T04:02:51;6.45;87.75
77100;SHT31;66602;48.922;2.414;2024-03-23T04:05:17;6.49;87.44
77100;SHT31;66602;48.922;2.414;2024-03-23T04:07:42;6.45;87.41
77100;SHT31;66602;48.922;2.414;2024-03-23T04:10:08;6.35;87.84
77100;SHT31;66602;48.922;2.414;2024-03-23T04:12:34;6.25;88.21
77100;SHT31;66602;48.922;2.414;2024-03-23T04:15:00;6.21;88.10
77100;SHT31;66602;48.922;2.414;2024-03-23T04:17:26;6.16;88.77
77100;SHT31;66602;48.922;2.414;2024-03-23T04:19:56;6.14;88.94
77100;SHT31;66602;48.922;2.414;2024-03-23T04:22:22;6.11;88.91
77100;SHT31;66602;48.922;2.414;2024-03-23T04:24:49;6.14;88.84
77100;SHT31;66602;48.922;2.414;2024-03-23T04:27:15;6.14;89.04
77100;SHT31;66602;48.922;2.414;2024-03-23T04:29:40;6.07;89.23
77100;SHT31;66602;48.922;2.414;2024-03-23T04:32:06;6.03;89.39
77100;SHT31;66602;48.922;2.414;2024-03-23T04:34:32;6.07;89.30
77100;SHT31;66602;48.922;2.414;2024-03-23T04:36:58;6.06;89.44
77100;SHT31;66602;48.922;2.414;2024-03-23T04:39:24;6.31;88.45
77100;SHT31;66602;48.922;2.414;2024-03-23T04:41:49;6.18;88.56
77100;SHT31;66602;48.922;2.414;2024-03-23T04:44:15;6.04;89.01
77100;SHT31;66602;48.922;2.414;2024-03-23T04:46:40;5.89;89.72
77100;SHT31;66602;48.922;2.414;2024-03-23T04:49:06;5.90;90.25
77100;SHT31;66602;48.922;2.414;2024-03-23T04:51:38;6.23;88.89
77100;SHT31;66602;48.922;2.414;2024-03-23T04:54:03;6.23;88.32
77100;SHT31;66602;48.922;2.414;2024-03-23T04:56:29;6.18;88.74
77100;SHT31;66602;48.922;2.414;2024-03-23T04:58:56;6.04;89.23
77100;SHT31;66602;48.922;2.414;2024-03-23T05:01:26;6.00;89.71
77100;SHT31;66602;48.922;2.414;2024-03-23T05:03:52;6.13;89.42
77100;SHT31;66602;48.922;2.414;2024-03-23T05:06:18;6.14;88.93
77100;SHT31;66602;48.922;2.414;2024-03-23T05:08:44;6.30;88.03
77100;SHT31;66602;48.922;2.414;2024-03-23T05:11:11;6.47;86.68
77100;SHT31;66602;48.922;2.414;2024-03-23T05:13:36;6.40;87.22
77100;SHT31;66602;48.922;2.414;2024-03-23T05:16:02;6.42;86.83
77100;SHT31;66602;48.922;2.414;2024-03-23T05:18:27;6.31;87.03
77100;SHT31;66602;48.922;2.414;2024-03-23T05:20:57;6.27;87.50
77100;SHT31;66602;48.922;2.414;2024-03-23T05:23:24;6.14;87.76
77100;SHT31;66602;48.922;2.414;2024-03-23T05:25:49;6.20;87.86
77100;SHT31;66602;48.922;2.414;2024-03-23T05:28:15;6.11;87.75
77100;SHT31;66602;48.922;2.414;2024-03-23T05:30:40;6.27;86.41
77100;SHT31;66602;48.922;2.414;2024-03-23T05:33:06;6.24;86.16
77100;SHT31;66602;48.922;2.414;2024-03-23T05:35:32;6.10;86.47
77100;SHT31;66602;48.922;2.414;2024-03-23T05:37:58;6.00;86.33
77100;SHT31;66602;48.922;2.414;2024-03-23T05:40:26;6.17;85.17
77100;SHT31;66602;48.922;2.414;2024-03-23T05:42:52;6.09;85.47
77100;SHT31;66602;48.922;2.414;2024-03-23T05:45:21;6.06;85.24
77100;SHT31;66602;48.922;2.414;2024-03-23T05:47:48;6.09;85.11
77100;SHT31;66602;48.922;2.414;2024-03-23T05:50:14;6.14;83.96
77100;SHT31;66602;48.922;2.414;2024-03-23T05:52:40;6.03;84.78
77100;SHT31;66602;48.922;2.414;2024-03-23T05:55:06;6.09;84.65
77100;SHT31;66602;48.922;2.414;2024-03-23T05:57:32;6.06;84.60
77100;SHT31;66602;48.922;2.414;2024-03-23T05:59:57;5.93;85.00
77100;SHT31;66602;48.922;2.414;2024-03-23T06:02:24;5.94;84.90
77100;SHT31;66602;48.922;2.414;2024-03-23T06:04:49;6.00;84.66
77100;SHT31;66602;48.922;2.414;2024-03-23T06:07:15;6.09;84.93
77100;SHT31;66602;48.922;2.414;2024-03-23T06:09:41;6.38;83.46
77100;SHT31;66602;48.922;2.414;2024-03-23T06:12:07;6.40;83.55
77100;SHT31;66602;48.922;2.414;2024-03-23T06:14:33;6.41;83.31
77100;SHT31;66602;48.922;2.414;2024-03-23T06:16:59;6.41;83.31
77100;SHT31;66602;48.922;2.414;2024-03-23T06:19:25;6.49;83.28
77100;SHT31;66602;48.922;2.414;2024-03-23T06:21:55;6.51;83.23
77100;SHT31;66602;48.922;2.414;2024-03-23T06:24:21;6.42;83.31
77100;SHT31;66602;48.922;2.414;2024-03-23T06:26:47;6.35;83.90
77100;SHT31;66602;48.922;2.414;2024-03-23T06:29:13;6.37;83.96
77100;SHT31;66602;48.922;2.414;2024-03-23T06:31:38;6.45;83.71
77100;SHT31;66602;48.922;2.414;2024-03-23T06:34:04;6.75;82.30
77100;SHT31;66602;48.922;2.414;2024-03-23T06:36:30;6.89;81.71
77100;SHT31;66602;48.922;2.414;2024-03-23T06:38:56;6.92;81.62
77100;SHT31;66602;48.922;2.414;2024-03-23T06:41:22;6.85;81.85
77100;SHT31;66602;48.922;2.414;2024-03-23T06:43:48;6.84;81.70
77100;SHT31;66602;48.922;2.414;2024-03-23T06:46:13;6.84;82.53
77100;SHT31;66602;48.922;2.414;2024-03-23T06:48:39;6.71;82.98
77100;SHT31;66602;48.922;2.414;2024-03-23T06:51:04;6.65;83.50
77100;SHT31;66602;48.922;2.414;2024-03-23T06:53:30;6.81;83.23
77100;SHT31;66602;48.922;2.414;2024-03-23T06:55:55;6.97;82.70
77100;SHT31;66602;48.922;2.414;2024-03-23T06:58:22;6.97;81.81
77100;SHT31;66602;48.922;2.414;2024-03-23T07:00:48;6.95;82.25
77100;SHT31;66602;48.922;2.414;2024-03-23T07:03:14;6.95;81.67
77100;SHT31;66602;48.922;2.414;2024-03-23T07:05:40;6.95;82.04
77100;SHT31;66602;48.922;2.414;2024-03-23T07:08:05;7.06;82.35
77100;SHT31;66602;48.922;2.414;2024-03-23T07:10:31;7.92;79.94
77100;SHT31;66602;48.922;2.414;2024-03-23T07:12:56;8.32;77.58
77100;SHT31;66602;48.922;2.414;2024-03-23T07:15:22;7.82;76.50
77100;SHT31;66602;48.922;2.414;2024-03-23T07:17:48;8.95;74.08
77100;SHT31;66602;48.922;2.414;2024-03-23T07:20:13;8.52;72.41
77100;SHT31;66602;48.922;2.414;2024-03-23T07:22:39;8.07;73.66
77100;SHT31;66602;48.922;2.414;2024-03-23T07:25:06;8.13;73.51
77100;SHT31;66602;48.922;2.414;2024-03-23T07:27:32;7.70;74.63
77100;SHT31;66602;48.922;2.414;2024-03-23T07:29:59;7.34;74.50
77100;SHT31;66602;48.922;2.414;2024-03-23T07:32:26;6.99;75.87
77100;SHT31;66602;48.922;2.414;2024-03-23T07:34:52;6.92;77.18
77100;SHT31;66602;48.922;2.414;2024-03-23T07:37:18;7.75;76.56
77100;SHT31;66602;48.922;2.414;2024-03-23T07:39:43;10.37;67.62
77100;SHT31;66602;48.922;2.414;2024-03-23T07:42:09;10.83;65.37
77100;SHT31;66602;48.922;2.414;2024-03-23T07:44:34;11.12;65.52
77100;SHT31;66602;48.922;2.414;2024-03-23T07:47:00;12.21;61.23
77100;SHT31;66602;48.922;2.414;2024-03-23T07:49:26;11.68;62.18
77100;SHT31;66602;48.922;2.414;2024-03-23T07:51:52;12.34;61.31
77100;SHT31;66602;48.922;2.414;2024-03-23T07:54:17;12.19;61.33
77100;SHT31;66602;48.922;2.414;2024-03-23T07:56:43;13.62;57.13
77100;SHT31;66602;48.922;2.414;2024-03-23T07:59:08;13.89;55.94
77100;SHT31;66602;48.922;2.414;2024-03-23T08:01:34;14.03;55.92
77100;SHT31;66602;48.922;2.414;2024-03-23T08:03:59;14.79;53.89
77100;SHT31;66602;48.922;2.414;2024-03-23T08:06:25;15.26;52.38
77100;SHT31;66602;48.922;2.414;2024-03-23T08:08:55;12.53;59.33
77100;SHT31;66602;48.922;2.414;2024-03-23T08:11:30;10.54;64.66
77100;SHT31;66602;48.922;2.414;2024-03-23T08:13:57;9.74;69.16
77100;SHT31;66602;48.922;2.414;2024-03-23T08:16:23;8.97;71.38
77100;SHT31;66602;48.922;2.414;2024-03-23T08:18:51;11.14;64.95
77100;SHT31;66602;48.922;2.414;2024-03-23T08:21:17;13.46;57.97
77100;SHT31;66602;48.922;2.414;2024-03-23T08:23:43;13.89;53.38
77100;SHT31;66602;48.922;2.414;2024-03-23T08:26:10;15.71;51.34
77100;SHT31;66602;48.922;2.414;2024-03-23T08:28:36;15.36;51.02
77100;SHT31;66602;48.922;2.414;2024-03-23T08:31:08;15.60;50.86
77100;SHT31;66602;48.922;2.414;2024-03-23T08:33:34;16.18;47.96
77100;SHT31;66602;48.922;2.414;2024-03-23T08:36:07;16.88;47.84
77100;SHT31;66602;48.922;2.414;2024-03-23T08:38:33;16.64;47.43
77100;SHT31;66602;48.922;2.414;2024-03-23T08:41:02;14.96;49.27
77100;SHT31;66602;48.922;2.414;2024-03-23T08:43:29;13.82;54.97
77100;SHT31;66602;48.922;2.414;2024-03-23T08:46:14;11.98;61.32
77100;SHT31;66602;48.922;2.414;2024-03-23T08:48:44;10.55;67.62
77100;SHT31;66602;48.922;2.414;2024-03-23T08:51:15;8.80;73.53
77100;SHT31;66602;48.922;2.414;2024-03-23T08:53:40;8.22;77.32
77100;SHT31;66602;48.922;2.414;2024-03-23T08:56:07;7.85;77.37
77100;SHT31;66602;48.922;2.414;2024-03-23T08:58:34;7.51;76.84
77100;SHT31;66602;48.922;2.414;2024-03-23T09:03:30;7.57;74.03
77100;SHT31;66602;48.922;2.414;2024-03-23T09:05:56;7.78;74.71
77100;SHT31;66602;48.922;2.414;2024-03-23T09:08:21;7.48;74.80
77100;SHT31;66602;48.922;2.414;2024-03-23T09:10:47;7.43;75.98
77100;SHT31;66602;48.922;2.414;2024-03-23T09:13:14;11.57;64.81
77100;SHT31;66602;48.922;2.414;2024-03-23T09:15:50;14.58;55.37
77100;SHT31;66602;48.922;2.414;2024-03-23T09:18:16;16.39;49.06
77100;SHT31;66602;48.922;2.414;2024-03-23T09:20:42;17.34;47.05
77100;SHT31;66602;48.922;2.414;2024-03-23T09:23:07;18.17;47.97
77100;SHT31;66602;48.922;2.414;2024-03-23T09:25:36;18.81;46.41
77100;SHT31;66602;48.922;2.414;2024-03-23T09:28:02;20.24;42.24
77100;SHT31;66602;48.922;2.414;2024-03-23T09:30:28;19.05;43.06
77100;SHT31;66602;48.922;2.414;2024-03-23T09:32:53;17.25;47.33
77100;SHT31;66602;48.922;2.414;2024-03-23T09:35:19;16.29;49.57
77100;SHT31;66602;48.922;2.414;2024-03-23T09:37:45;12.97;55.74
77100;SHT31;66602;48.922;2.414;2024-03-23T09:40:11;11.31;61.12
77100;SHT31;66602;48.922;2.414;2024-03-23T09:42:37;10.13;69.48
77100;SHT31;66602;48.922;2.414;2024-03-23T09:45:05;8.92;74.75
77100;SHT31;66602;48.922;2.414;2024-03-23T09:47:32;8.13;79.25
77100;SHT31;66602;48.922;2.414;2024-03-23T09:49:58;8.49;77.36
77100;SHT31;66602;48.922;2.414;2024-03-23T09:52:24;9.39;73.20
77100;SHT31;66602;48.922;2.414;2024-03-23T09:54:50;11.60;65.24
77100;SHT31;66602;48.922;2.414;2024-03-23T09:57:15;11.65;61.98
77100;SHT31;66602;48.922;2.414;2024-03-23T09:59:41;11.34;62.60
77100;SHT31;66602;48.922;2.414;2024-03-23T10:02:07;13.29;57.48
77100;SHT31;66602;48.922;2.414;2024-03-23T10:04:40;14.64;53.82
77100;SHT31;66602;48.922;2.414;2024-03-23T10:07:17;15.41;51.26
77100;SHT31;66602;48.922;2.414;2024-03-23T10:09:44;15.89;50.66
77100;SHT31;66602;48.922;2.414;2024-03-23T10:12:16;16.40;51.58
77100;SHT31;66602;48.922;2.414;2024-03-23T10:14:42;15.33;50.44
77100;SHT31;66602;48.922;2.414;2024-03-23T10:17:26;15.97;51.03
77100;SHT31;66602;48.922;2.414;2024-03-23T10:19:52;15.58;52.03
77100;SHT31;66602;48.922;2.414;2024-03-23T10:22:20;15.94;50.36
77100;SHT31;66602;48.922;2.414;2024-03-23T10:24:46;15.82;51.11
77100;SHT31;66602;48.922;2.414;2024-03-23T10:27:16;16.39;49.68
77100;SHT31;66602;48.922;2.414;2024-03-23T10:29:46;14.59;51.57
77100;SHT31;66602;48.922;2.414;2024-03-23T10:32:12;15.30;48.78
77100;SHT31;66602;48.922;2.414;2024-03-23T10:34:38;17.40;45.70
77100;SHT31;66602;48.922;2.414;2024-03-23T10:37:04;14.73;51.86
77100;SHT31;66602;48.922;2.414;2024-03-23T10:39:32;16.76;50.76
77100;SHT31;66602;48.922;2.414;2024-03-23T10:42:03;13.42;51.99
77100;SHT31;66602;48.922;2.414;2024-03-23T10:44:30;13.65;53.07
77100;SHT31;66602;48.922;2.414;2024-03-23T10:46:57;13.41;52.63
77100;SHT31;66602;48.922;2.414;2024-03-23T10:49:33;12.34;57.03
77100;SHT31;66602;48.922;2.414;2024-03-23T10:52:03;13.16;57.21
77100;SHT31;66602;48.922;2.414;2024-03-23T10:54:30;11.91;58.98
77100;SHT31;66602;48.922;2.414;2024-03-23T10:57:09;10.92;62.11
77100;SHT31;66602;48.922;2.414;2024-03-23T10:59:37;10.58;65.95
77100;SHT31;66602;48.922;2.414;2024-03-23T11:02:03;10.58;68.76
77100;SHT31;66602;48.922;2.414;2024-03-23T11:04:33;14.48;55.27
77100;SHT31;66602;48.922;2.414;2024-03-23T11:06:59;14.49;52.87
77100;SHT31;66602;48.922;2.414;2024-03-23T11:09:43;16.74;48.46
77100;SHT31;66602;48.922;2.414;2024-03-23T11:14:50;17.11;42.51
77100;SHT31;66602;48.922;2.414;2024-03-23T11:17:22;15.09;48.18
77100;SHT31;66602;48.922;2.414;2024-03-23T11:22:43;11.77;56.29
77100;SHT31;66602;48.922;2.414;2024-03-23T11:25:22;12.59;55.89
77100;SHT31;66602;48.922;2.414;2024-03-23T11:27:51;13.66;50.45
77100;SHT31;66602;48.922;2.414;2024-03-23T11:30:27;14.24;47.63
77100;SHT31;66602;48.922;2.414;2024-03-23T11:32:56;14.98;46.74
77100;SHT31;66602;48.922;2.414;2024-03-23T11:38:19;12.05;50.68
77100;SHT31;66602;48.922;2.414;2024-03-23T11:40:49;12.16;51.72
77100;SHT31;66602;48.922;2.414;2024-03-23T11:43:16;11.27;55.78
77100;SHT31;66602;48.922;2.414;2024-03-23T11:45:47;10.91;55.86
77100;SHT31;66602;48.922;2.414;2024-03-23T11:48:16;10.48;57.51
77100;SHT31;66602;48.922;2.414;2024-03-23T11:50:46;13.84;48.92
77100;SHT31;66602;48.922;2.414;2024-03-23T11:53:21;15.62;43.04
77100;SHT31;66602;48.922;2.414;2024-03-23T11:55:52;17.24;38.86
77100;SHT31;66602;48.922;2.414;2024-03-23T11:58:20;15.24;42.87
77100;SHT31;66602;48.922;2.414;2024-03-23T12:00:59;14.35;44.56
77100;SHT31;66602;48.922;2.414;2024-03-23T12:03:26;16.04;41.04
77100;SHT31;66602;48.922;2.414;2024-03-23T12:05:57;15.26;43.20
77100;SHT31;66602;48.922;2.414;2024-03-23T12:08:24;17.59;37.87
77100;SHT31;66602;48.922;2.414;2024-03-23T12:10:52;18.37;37.13
77100;SHT31;66602;48.922;2.414;2024-03-23T12:13:19;18.45;37.15
77100;SHT31;66602;48.922;2.414;2024-03-23T12:15:46;16.83;39.31
77100;SHT31;66602;48.922;2.414;2024-03-23T12:18:12;15.11;42.73
77100;SHT31;66602;48.922;2.414;2024-03-23T12:20:39;14.89;42.20
77100;SHT31;66602;48.922;2.414;2024-03-23T12:23:09;15.57;40.33
77100;SHT31;66602;48.922;2.414;2024-03-23T12:25:36;14.45;41.34
77100;SHT31;66602;48.922;2.414;2024-03-23T12:28:01;13.18;44.10
77100;SHT31;66602;48.922;2.414;2024-03-23T12:30:27;15.92;40.17
77100;SHT31;66602;48.922;2.414;2024-03-23T12:32:53;14.79;44.05
77100;SHT31;66602;48.922;2.414;2024-03-23T12:35:19;14.44;44.48
77100;SHT31;66602;48.922;2.414;2024-03-23T12:37:44;14.57;43.71
77100;SHT31;66602;48.922;2.414;2024-03-23T12:40:10;18.01;36.50
77100;SHT31;66602;48.922;2.414;2024-03-23T12:42:36;19.43;34.02
77100;SHT31;66602;48.922;2.414;2024-03-23T12:45:02;18.24;35.45
77100;SHT31;66602;48.922;2.414;2024-03-23T12:47:30;19.05;35.37
77100;SHT31;66602;48.922;2.414;2024-03-23T12:49:55;18.37;35.51
77100;SHT31;66602;48.922;2.414;2024-03-23T12:52:21;17.06;36.72
77100;SHT31;66602;48.922;2.414;2024-03-23T12:54:48;18.59;35.34
77100;SHT31;66602;48.922;2.414;2024-03-23T12:57:14;16.63;35.94
77100;SHT31;66602;48.922;2.414;2024-03-23T12:59:39;17.61;36.51
77100;SHT31;66602;48.922;2.414;2024-03-23T13:02:05;18.07;34.86
77100;SHT31;66602;48.922;2.414;2024-03-23T13:04:32;17.82;35.28
77100;SHT31;66602;48.922;2.414;2024-03-23T13:06:58;18.16;35.44
77100;SHT31;66602;48.922;2.414;2024-03-23T13:09:23;18.84;33.62
77100;SHT31;66602;48.922;2.414;2024-03-23T13:11:49;17.86;35.27
77100;SHT31;66602;48.922;2.414;2024-03-23T13:14:15;15.30;38.61
77100;SHT31;66602;48.922;2.414;2024-03-23T13:16:42;13.97;42.66
77100;SHT31;66602;48.922;2.414;2024-03-23T13:19:08;12.50;48.58
77100;SHT31;66602;48.922;2.414;2024-03-23T13:21:34;11.68;54.18
77100;SHT31;66602;48.922;2.414;2024-03-23T13:24:00;10.99;55.90
77100;SHT31;66602;48.922;2.414;2024-03-23T13:26:26;10.93;56.71
77100;SHT31;66602;48.922;2.414;2024-03-23T13:28:51;11.14;58.33
77100;SHT31;66602;48.922;2.414;2024-03-23T13:31:17;11.30;54.38
77100;SHT31;66602;48.922;2.414;2024-03-23T13:33:43;12.01;57.31
77100;SHT31;66602;48.922;2.414;2024-03-23T13:36:09;13.69;51.48
77100;SHT31;66602;48.922;2.414;2024-03-23T13:38:34;14.30;50.30
77100;SHT31;66602;48.922;2.414;2024-03-23T13:41:00;12.83;49.92
77100;SHT31;66602;48.922;2.414;2024-03-23T13:43:27;11.88;52.27
77100;SHT31;66602;48.922;2.414;2024-03-23T13:45:57;11.71;53.22
77100;SHT31;66602;48.922;2.414;2024-03-23T13:48:24;11.44;53.58
77100;SHT31;66602;48.922;2.414;2024-03-23T13:51:02;11.47;54.61
77100;SHT31;66602;48.922;2.414;2024-03-23T13:53:28;11.44;55.23
77100;SHT31;66602;48.922;2.414;2024-03-23T13:55:53;11.10;56.07
77100;SHT31;66602;48.922;2.414;2024-03-23T13:58:19;10.83;58.20
77100;SHT31;66602;48.922;2.414;2024-03-23T14:00:45;10.49;58.33
77100;SHT31;66602;48.922;2.414;2024-03-23T14:03:11;10.49;58.41
77100;SHT31;66602;48.922;2.414;2024-03-23T14:05:37;10.55;58.82
77100;SHT31;66602;48.922;2.414;2024-03-23T14:08:05;10.73;58.92
77100;SHT31;66602;48.922;2.414;2024-03-23T14:10:30;11.16;57.88
77100;SHT31;66602;48.922;2.414;2024-03-23T14:12:56;11.72;56.27
77100;SHT31;66602;48.922;2.414;2024-03-23T14:15:21;12.34;53.34
77100;SHT31;66602;48.922;2.414;2024-03-23T14:17:47;12.47;52.24
77100;SHT31;66602;48.922;2.414;2024-03-23T14:20:12;12.85;52.35
77100;SHT31;66602;48.922;2.414;2024-03-23T14:22:38;13.34;50.89
77100;SHT31;66602;48.922;2.414;2024-03-23T14:25:06;13.53;49.30
77100;SHT31;66602;48.922;2.414;2024-03-23T14:27:32;13.90;49.14
77100;SHT31;66602;48.922;2.414;2024-03-23T14:29:57;13.56;49.60
77100;SHT31;66602;48.922;2.414;2024-03-23T14:32:23;13.99;48.98
77100;SHT31;66602;48.922;2.414;2024-03-23T14:34:49;14.71;48.44
77100;SHT31;66602;48.922;2.414;2024-03-23T14:37:14;13.79;48.94
77100;SHT31;66602;48.922;2.414;2024-03-23T14:39:44;13.62;50.14
77100;SHT31;66602;48.922;2.414;2024-03-23T14:42:11;13.07;51.93
77100;SHT31;66602;48.922;2.414;2024-03-23T14:44:36;12.60;53.24
77100;SHT31;66602;48.922;2.414;2024-03-23T14:47:02;12.76;53.21
77100;SHT31;66602;48.922;2.414;2024-03-23T14:49:27;12.25;54.94
77100;SHT31;66602;48.922;2.414;2024-03-23T14:51:53;11.95;56.00
77100;SHT31;66602;48.922;2.414;2024-03-23T14:54:18;12.05;55.82
77100;SHT31;66602;48.922;2.414;2024-03-23T14:56:43;11.91;55.42
77100;SHT31;66602;48.922;2.414;2024-03-23T14:59:09;11.65;55.32
77100;SHT31;66602;48.922;2.414;2024-03-23T15:01:35;11.57;55.78
77100;SHT31;66602;48.922;2.414;2024-03-23T15:04:00;11.65;55.61
77100;SHT31;66602;48.922;2.414;2024-03-23T15:06:26;11.57;56.07
77100;SHT31;66602;48.922;2.414;2024-03-23T15:08:51;11.57;57.58
77100;SHT31;66602;48.922;2.414;2024-03-23T15:11:18;11.58;56.64
77100;SHT31;66602;48.922;2.414;2024-03-23T15:13:45;11.72;57.68
77100;SHT31;66602;48.922;2.414;2024-03-23T15:16:16;11.43;56.38
77100;SHT31;66602;48.922;2.414;2024-03-23T15:18:43;11.30;57.39
77100;SHT31;66602;48.922;2.414;2024-03-23T15:21:08;10.99;58.26
77100;SHT31;66602;48.922;2.414;2024-03-23T15:23:36;10.91;59.48
77100;SHT31;66602;48.922;2.414;2024-03-23T15:26:02;10.77;58.69
77100;SHT31;66602;48.922;2.414;2024-03-23T15:28:29;10.65;59.60
77100;SHT31;66602;48.922;2.414;2024-03-23T15:31:07;10.51;60.67
77100;SHT31;66602;48.922;2.414;2024-03-23T15:33:33;10.35;61.03
77100;SHT31;66602;48.922;2.414;2024-03-23T15:36:02;10.20;61.59
77100;SHT31;66602;48.922;2.414;2024-03-23T15:38:28;10.05;64.58
77100;SHT31;66602;48.922;2.414;2024-03-23T15:40:57;8.05;73.96
77100;SHT31;66602;48.922;2.414;2024-03-23T15:43:23;6.91;79.72
77100;SHT31;66602;48.922;2.414;2024-03-23T15:46:02;6.64;83.94
77100;SHT31;66602;48.922;2.414;2024-03-23T15:48:31;6.64;85.97
77100;SHT31;66602;48.922;2.414;2024-03-23T15:51:01;6.67;86.33
77100;SHT31;66602;48.922;2.414;2024-03-23T15:53:31;6.67;87.39
77100;SHT31;66602;48.922;2.414;2024-03-23T15:56:01;6.75;87.69
77100;SHT31;66602;48.922;2.414;2024-03-23T15:58:29;7.12;87.05
77100;SHT31;66602;48.922;2.414;2024-03-23T16:00:58;7.26;85.43
77100;SHT31;66602;48.922;2.414;2024-03-23T16:03:24;7.13;85.93
77100;SHT31;66602;48.922;2.414;2024-03-23T16:05:59;7.15;85.60
77100;SHT31;66602;48.922;2.414;2024-03-23T16:08:25;7.03;86.41
77100;SHT31;66602;48.922;2.414;2024-03-23T16:10:52;6.97;86.59
77100;SHT31;66602;48.922;2.414;2024-03-23T16:13:18;7.02;86.96
77100;SHT31;66602;48.922;2.414;2024-03-23T16:15:44;7.12;86.54
77100;SHT31;66602;48.922;2.414;2024-03-23T16:18:09;7.31;84.41
77100;SHT31;66602;48.922;2.414;2024-03-23T16:20:36;7.40;83.32
77100;SHT31;66602;48.922;2.414;2024-03-23T16:23:02;7.40;82.32
77100;SHT31;66602;48.922;2.414;2024-03-23T16:25:28;7.38;83.20
77100;SHT31;66602;48.922;2.414;2024-03-23T16:27:54;7.33;82.42
77100;SHT31;66602;48.922;2.414;2024-03-23T16:30:20;7.27;84.61
77100;SHT31;66602;48.922;2.414;2024-03-23T16:32:49;7.34;81.35
77100;SHT31;66602;48.922;2.414;2024-03-23T16:35:14;7.23;83.10
77100;SHT31;66602;48.922;2.414;2024-03-23T16:37:40;7.19;83.92
77100;SHT31;66602;48.922;2.414;2024-03-23T16:40:07;7.33;81.87